createdAt,value
2023-05-19T00:01:02.953Z,9.50
2023-05-19T00:03:33.797Z,9.50
2023-05-19T00:06:03.898Z,9.60
2023-05-19T00:08:32.702Z,9.60
2023-05-19T00:11:02.995Z,9.50
2023-05-19T00:13:33.073Z,9.40
2023-05-19T00:16:01.622Z,9.40
2023-05-19T00:18:30.569Z,9.40
2023-05-19T00:20:58.632Z,9.40
2023-05-19T00:23:26.688Z,9.40
2023-05-19T00:25:54.794Z,9.40
2023-05-19T00:28:23.006Z,9.30
2023-05-19T00:30:52.520Z,9.30
2023-05-19T00:33:20.695Z,9.20
2023-05-19T00:35:48.902Z,9.20
2023-05-19T00:38:17.110Z,9.10
2023-05-19T00:40:45.399Z,9.10
2023-05-19T00:43:13.526Z,9.20
2023-05-19T00:45:41.976Z,9.20
2023-05-19T00:48:11.362Z,9.10
2023-05-19T00:50:39.600Z,9.20
2023-05-19T00:53:07.922Z,9.10
2023-05-19T00:55:40.440Z,9.10
2023-05-19T00:58:10.486Z,9.10
2023-05-19T01:00:39.648Z,9.10
2023-05-19T01:03:11.843Z,9.00
2023-05-19T01:05:44.682Z,9.00
2023-05-19T01:08:13.001Z,9.00
2023-05-19T01:10:41.137Z,9.00
2023-05-19T01:13:09.995Z,8.90
2023-05-19T01:16:01.272Z,9.00
2023-05-19T01:18:48.407Z,8.90
2023-05-19T01:21:54.094Z,8.90
2023-05-19T01:24:45.220Z,8.80
2023-05-19T01:27:35.586Z,8.80
2023-05-19T01:30:27.250Z,8.80
2023-05-19T01:32:59.226Z,8.80
2023-05-19T01:35:28.577Z,8.90
2023-05-19T01:37:59.340Z,8.80
2023-05-19T01:40:29.282Z,8.80
2023-05-19T01:43:00.469Z,8.80
2023-05-19T01:45:31.676Z,8.70
2023-05-19T01:48:02.409Z,8.70
2023-05-19T01:50:31.194Z,8.60
2023-05-19T01:53:00.656Z,8.60
2023-05-19T01:55:28.994Z,8.50
2023-05-19T01:58:07.908Z,8.50
2023-05-19T02:00:52.726Z,8.60
2023-05-19T02:03:34.020Z,8.50
2023-05-19T02:06:13.286Z,8.50
2023-05-19T02:08:45.551Z,8.50
2023-05-19T02:11:21.594Z,8.50
2023-05-19T02:14:43.121Z,8.40
2023-05-19T02:17:15.563Z,8.40
2023-05-19T02:19:44.996Z,8.40
2023-05-19T02:22:13.047Z,8.40
2023-05-19T02:24:41.911Z,8.40
2023-05-19T02:27:09.979Z,8.40
2023-05-19T02:29:38.000Z,8.40
2023-05-19T02:32:08.418Z,8.30
2023-05-19T02:34:37.914Z,8.30
2023-05-19T02:40:58.831Z,8.30
2023-05-19T02:43:26.923Z,8.30
2023-05-19T02:45:54.968Z,8.30
2023-05-19T02:48:23.049Z,8.20
2023-05-19T02:50:52.431Z,8.20
2023-05-19T02:53:20.514Z,8.20
2023-05-19T02:55:48.550Z,8.20
2023-05-19T02:58:16.759Z,8.10
2023-05-19T03:00:45.420Z,8.10
2023-05-19T03:03:14.933Z,8.00
2023-05-19T03:05:43.533Z,8.00
2023-05-19T03:08:12.941Z,8.00
2023-05-19T03:10:41.335Z,7.90
2023-05-19T03:13:09.405Z,7.90
2023-05-19T03:15:37.590Z,7.80
2023-05-19T03:18:06.314Z,7.80
2023-05-19T03:20:34.484Z,7.70
2023-05-19T03:23:02.942Z,7.60
2023-05-19T03:25:32.896Z,7.50
2023-05-19T03:28:01.516Z,7.40
2023-05-19T03:30:29.700Z,7.30
2023-05-19T03:33:12.967Z,7.30
2023-05-19T03:35:41.916Z,7.20
2023-05-19T03:38:10.331Z,7.20
2023-05-19T03:40:41.321Z,7.30
2023-05-19T03:43:11.968Z,7.20
2023-05-19T03:45:47.246Z,7.20
2023-05-19T03:48:44.991Z,7.10
2023-05-19T03:51:46.085Z,7.20
2023-05-19T03:54:31.659Z,7.30
2023-05-19T03:57:01.070Z,7.30
2023-05-19T03:59:29.196Z,7.40
2023-05-19T04:01:58.141Z,7.30
2023-05-19T04:04:28.278Z,7.20
2023-05-19T04:06:56.427Z,7.30
2023-05-19T04:09:24.904Z,7.40
2023-05-19T04:11:53.010Z,7.60
2023-05-19T04:14:22.409Z,8.30
2023-05-19T04:16:50.877Z,9.40
2023-05-19T04:19:19.057Z,10.40
2023-05-19T04:21:47.312Z,11.20
2023-05-19T04:24:15.721Z,11.50
2023-05-19T04:26:46.127Z,12.10
2023-05-19T04:29:18.034Z,12.40
2023-05-19T04:31:48.958Z,12.70
2023-05-19T04:34:19.919Z,12.80
2023-05-19T04:36:50.960Z,13.20
2023-05-19T04:39:21.882Z,13.50
2023-05-19T04:41:50.574Z,13.50
2023-05-19T04:44:19.125Z,13.40
2023-05-19T04:46:54.495Z,14.00
2023-05-19T04:49:28.518Z,14.70
2023-05-19T04:51:56.575Z,15.10
2023-05-19T04:54:28.872Z,15.00
2023-05-19T04:56:57.441Z,15.50
2023-05-19T04:59:27.817Z,15.50
2023-05-19T05:01:57.941Z,15.80
2023-05-19T05:04:28.349Z,16.00
2023-05-19T05:06:56.417Z,16.80
2023-05-19T05:09:25.927Z,17.30
2023-05-19T05:11:56.087Z,17.10
2023-05-19T05:14:24.757Z,17.00
2023-05-19T05:16:54.511Z,16.90
2023-05-19T05:19:27.192Z,16.80
2023-05-19T05:21:56.660Z,17.10
2023-05-19T05:24:25.262Z,17.50
2023-05-19T05:26:57.027Z,17.80
2023-05-19T05:29:25.080Z,17.80
2023-05-19T05:31:54.104Z,17.60
2023-05-19T05:34:23.479Z,17.60
2023-05-19T05:36:52.914Z,18.30
2023-05-19T05:39:21.464Z,18.00
2023-05-19T05:41:51.289Z,18.50
2023-05-19T05:44:19.426Z,18.50
2023-05-19T05:46:48.227Z,18.80
2023-05-19T05:49:16.769Z,17.50
2023-05-19T05:51:54.712Z,16.90
2023-05-19T05:54:36.750Z,16.80
2023-05-19T05:57:05.726Z,16.90
2023-05-19T05:59:34.845Z,16.00
2023-05-19T06:02:02.959Z,16.20
2023-05-19T06:04:31.282Z,16.30
2023-05-19T06:07:02.033Z,15.90
2023-05-19T06:09:35.850Z,15.90
2023-05-19T06:12:06.563Z,15.20
2023-05-19T06:14:39.479Z,15.30
2023-05-19T06:17:16.670Z,14.80
2023-05-19T06:19:44.802Z,14.70
2023-05-19T06:22:12.861Z,14.60
2023-05-19T06:24:43.972Z,14.90
2023-05-19T06:27:12.148Z,14.30
2023-05-19T06:29:40.313Z,13.90
2023-05-19T06:32:10.277Z,14.30
2023-05-19T06:34:40.463Z,14.50
2023-05-19T06:37:08.662Z,14.90
2023-05-19T06:39:36.782Z,14.30
2023-05-19T06:42:08.242Z,14.30
2023-05-19T06:45:02.219Z,13.80
2023-05-19T06:47:30.604Z,14.00
2023-05-19T06:49:59.412Z,13.90
2023-05-19T06:52:31.237Z,14.20
2023-05-19T06:54:59.507Z,14.20
2023-05-19T06:57:29.279Z,14.20
2023-05-19T06:59:58.977Z,14.00
2023-05-19T07:02:27.825Z,14.10
2023-05-19T07:04:57.382Z,14.20
2023-05-19T07:07:26.688Z,14.20
2023-05-19T07:09:57.396Z,14.10
2023-05-19T07:12:28.089Z,14.40
2023-05-19T07:14:56.224Z,14.40
2023-05-19T07:17:25.137Z,14.20
2023-05-19T07:19:53.395Z,14.30
2023-05-19T07:22:22.205Z,14.60
2023-05-19T07:24:50.240Z,14.60
2023-05-19T07:27:19.189Z,14.50
2023-05-19T07:29:48.624Z,14.40
2023-05-19T07:32:16.802Z,14.30
2023-05-19T07:34:44.851Z,14.30
2023-05-19T07:37:12.896Z,14.80
2023-05-19T07:39:40.933Z,14.80
2023-05-19T07:42:09.027Z,14.80
2023-05-19T07:44:37.197Z,14.70
2023-05-19T07:47:07.382Z,14.80
2023-05-19T07:49:35.450Z,15.20
2023-05-19T07:52:03.652Z,15.50
2023-05-19T07:54:31.691Z,15.40
2023-05-19T07:56:59.758Z,15.40
2023-05-19T07:59:27.802Z,15.60
2023-05-19T08:01:55.845Z,15.60
2023-05-19T08:04:25.277Z,15.50
2023-05-19T08:06:53.316Z,15.60
2023-05-19T08:09:21.450Z,15.80
2023-05-19T08:11:49.802Z,15.70
2023-05-19T08:14:18.180Z,15.90
2023-05-19T08:16:46.492Z,15.80
2023-05-19T08:19:14.563Z,15.80
2023-05-19T08:21:44.598Z,15.70
2023-05-19T08:24:12.782Z,15.80
2023-05-19T08:26:40.952Z,16.10
2023-05-19T08:29:08.917Z,16.00
2023-05-19T08:31:37.208Z,16.00
2023-05-19T08:34:05.909Z,15.80
2023-05-19T08:36:34.088Z,15.90
2023-05-19T08:39:03.707Z,16.00
2023-05-19T08:41:31.796Z,16.10
2023-05-19T08:44:00.481Z,16.10
2023-05-19T08:46:30.700Z,16.10
2023-05-19T08:49:03.201Z,15.90
2023-05-19T08:51:47.223Z,16.10
2023-05-19T08:54:18.143Z,16.50
2023-05-19T08:56:46.502Z,16.40
2023-05-19T08:59:16.101Z,16.50
2023-05-19T09:01:46.466Z,16.20
2023-05-19T09:04:15.156Z,16.60
2023-05-19T09:06:45.086Z,16.20
2023-05-19T09:09:13.260Z,16.50
2023-05-19T09:11:46.320Z,16.50
2023-05-19T09:14:14.357Z,16.40
2023-05-19T09:16:42.997Z,16.60
2023-05-19T09:19:16.376Z,16.70
2023-05-19T09:21:45.762Z,16.90
2023-05-19T09:24:13.895Z,16.90
2023-05-19T09:26:44.017Z,16.60
2023-05-19T09:29:13.098Z,16.60
2023-05-19T09:31:42.060Z,16.60
2023-05-19T09:34:14.475Z,16.70
2023-05-19T09:36:42.650Z,16.80
2023-05-19T09:39:17.566Z,16.90
2023-05-19T09:41:47.364Z,17.10
2023-05-19T09:44:22.479Z,17.20
2023-05-19T09:46:51.553Z,17.40
2023-05-19T09:49:23.965Z,17.20
2023-05-19T09:51:52.773Z,17.30
2023-05-19T09:54:23.043Z,17.20
2023-05-19T09:57:00.844Z,17.00
2023-05-19T09:59:32.349Z,17.30
2023-05-19T10:02:02.346Z,17.20
2023-05-19T10:04:31.500Z,17.30
2023-05-19T10:07:00.456Z,17.20
2023-05-19T10:09:30.035Z,17.10
2023-05-19T10:12:00.173Z,17.10
2023-05-19T10:14:29.760Z,17.30
2023-05-19T10:16:59.258Z,17.60
2023-05-19T10:19:28.687Z,17.70
2023-05-19T10:21:57.265Z,17.60
2023-05-19T10:24:25.497Z,17.50
2023-05-19T10:26:59.525Z,17.60
2023-05-19T10:29:32.267Z,17.50
2023-05-19T10:32:05.399Z,17.50
2023-05-19T10:34:57.046Z,17.50
2023-05-19T10:37:33.090Z,17.70
2023-05-19T10:40:06.735Z,17.70
2023-05-19T10:42:42.018Z,17.90
2023-05-19T10:45:18.558Z,18.10
2023-05-19T10:47:47.186Z,17.90
2023-05-19T10:50:15.664Z,17.70
2023-05-19T10:52:44.627Z,17.80
2023-05-19T10:55:15.750Z,17.80
2023-05-19T10:57:56.674Z,18.10
2023-05-19T11:00:32.712Z,18.40
2023-05-19T11:03:14.492Z,18.70
2023-05-19T11:05:45.210Z,18.40
2023-05-19T11:08:13.789Z,18.20
2023-05-19T11:10:45.941Z,18.40
2023-05-19T11:13:22.668Z,18.60
2023-05-19T11:15:52.846Z,18.40
2023-05-19T11:18:21.379Z,17.90
2023-05-19T11:20:57.986Z,17.80
2023-05-19T11:23:27.024Z,18.10
2023-05-19T11:25:55.154Z,18.30
2023-05-19T11:28:26.007Z,18.10
2023-05-19T11:30:57.489Z,18.20
2023-05-19T11:33:27.299Z,18.10
2023-05-19T11:35:57.864Z,18.00
2023-05-19T11:38:26.326Z,18.20
2023-05-19T11:40:55.059Z,18.50
2023-05-19T11:43:24.621Z,18.30
2023-05-19T11:45:52.967Z,18.40
2023-05-19T11:48:24.037Z,18.60
2023-05-19T11:50:52.405Z,18.90
2023-05-19T11:53:20.969Z,18.70
2023-05-19T11:55:50.037Z,18.50
2023-05-19T11:58:18.623Z,18.70
2023-05-19T12:00:47.680Z,18.80
2023-05-19T12:03:17.401Z,18.80
2023-05-19T12:05:50.014Z,18.80
2023-05-19T12:08:19.421Z,18.90
2023-05-19T12:10:50.355Z,18.70
2023-05-19T12:13:18.635Z,18.70
2023-05-19T12:15:46.802Z,18.60
2023-05-19T12:18:14.985Z,18.50
2023-05-19T12:20:43.134Z,19.00
2023-05-19T12:23:13.138Z,19.10
2023-05-19T12:25:43.024Z,18.90
2023-05-19T12:28:11.511Z,19.10
2023-05-19T12:30:39.752Z,19.20
2023-05-19T12:33:09.930Z,19.20
2023-05-19T12:35:39.099Z,19.20
2023-05-19T12:38:08.081Z,19.20
2023-05-19T12:40:41.947Z,19.10
2023-05-19T12:43:19.611Z,19.50
2023-05-19T12:45:47.685Z,19.20
2023-05-19T12:48:16.873Z,19.10
2023-05-19T12:50:45.688Z,19.00
2023-05-19T12:53:14.160Z,19.00
2023-05-19T12:55:45.108Z,18.80
2023-05-19T12:58:14.071Z,19.00
2023-05-19T13:00:43.591Z,18.90
2023-05-19T13:03:17.358Z,18.90
2023-05-19T13:05:47.246Z,19.20
2023-05-19T13:08:16.864Z,19.10
2023-05-19T13:10:47.387Z,19.30
2023-05-19T13:13:15.736Z,19.70
2023-05-19T13:15:45.412Z,19.90
2023-05-19T13:18:14.425Z,19.70
2023-05-19T13:20:44.320Z,19.60
2023-05-19T13:23:13.280Z,19.70
2023-05-19T13:25:42.279Z,19.40
2023-05-19T13:28:12.186Z,19.80
2023-05-19T13:30:41.565Z,19.60
2023-05-19T13:33:09.790Z,19.80
2023-05-19T13:35:38.279Z,19.90
2023-05-19T13:38:06.836Z,19.90
2023-05-19T13:40:35.566Z,20.20
2023-05-19T13:43:05.072Z,20.20
2023-05-19T13:45:34.550Z,19.90
2023-05-19T13:48:04.181Z,19.70
2023-05-19T13:50:40.091Z,19.80
2023-05-19T13:53:08.201Z,19.90
2023-05-19T13:55:36.316Z,19.30
2023-05-19T13:58:04.434Z,19.00
2023-05-19T14:00:35.737Z,19.00
2023-05-19T14:03:04.595Z,19.20
2023-05-19T14:05:32.763Z,19.40
2023-05-19T14:08:01.255Z,19.60
2023-05-19T14:10:29.369Z,19.80
2023-05-19T14:15:38.243Z,19.50
2023-05-19T14:18:07.148Z,19.40
2023-05-19T14:20:35.922Z,19.80
2023-05-19T14:23:04.526Z,20.20
2023-05-19T14:25:32.643Z,20.20
2023-05-19T14:28:00.901Z,19.90
2023-05-19T14:30:28.989Z,19.70
2023-05-19T14:32:58.590Z,19.70
2023-05-19T14:35:27.057Z,19.40
2023-05-19T14:37:55.081Z,19.20
2023-05-19T14:40:23.179Z,19.10
2023-05-19T14:42:51.177Z,19.40
2023-05-19T14:45:19.330Z,19.60
2023-05-19T14:47:47.913Z,19.90
2023-05-19T14:50:17.662Z,20.00
2023-05-19T14:52:45.727Z,20.00
2023-05-19T14:55:13.833Z,19.80
2023-05-19T14:57:41.899Z,19.40
2023-05-19T15:00:10.893Z,19.20
2023-05-19T15:02:39.064Z,19.40
2023-05-19T15:05:11.882Z,19.50
2023-05-19T15:07:41.276Z,19.50
2023-05-19T15:10:10.367Z,19.50
2023-05-19T15:12:38.646Z,19.70
2023-05-19T15:15:08.358Z,19.80
2023-05-19T15:17:36.552Z,19.80
2023-05-19T15:20:06.694Z,19.70
2023-05-19T15:22:35.116Z,19.60
2023-05-19T15:25:04.632Z,19.60
2023-05-19T15:27:32.681Z,19.40
2023-05-19T15:30:00.864Z,19.50
2023-05-19T15:32:29.138Z,19.60
2023-05-19T15:34:57.207Z,19.60
2023-05-19T15:37:25.517Z,19.60
2023-05-19T15:39:54.831Z,19.50
2023-05-19T15:42:24.245Z,19.80
2023-05-19T15:44:52.295Z,19.70
2023-05-19T15:47:20.285Z,19.60
2023-05-19T15:49:48.299Z,19.60
2023-05-19T15:52:16.361Z,19.70
2023-05-19T15:54:44.493Z,19.70
2023-05-19T15:57:13.465Z,19.60
2023-05-19T15:59:42.934Z,19.80
2023-05-19T16:02:11.054Z,19.80
2023-05-19T16:04:39.112Z,19.60
2023-05-19T16:07:07.189Z,19.20
2023-05-19T16:09:35.304Z,19.00
2023-05-19T16:12:03.326Z,19.00
2023-05-19T16:14:36.215Z,19.00
2023-05-19T16:17:11.191Z,19.20
2023-05-19T16:19:39.363Z,19.60
2023-05-19T16:22:07.441Z,19.80
2023-05-19T16:24:35.536Z,19.60
2023-05-19T16:27:03.593Z,19.40
2023-05-19T16:29:31.785Z,19.30
2023-05-19T16:31:59.905Z,19.30
2023-05-19T16:34:30.668Z,19.20
2023-05-19T16:36:58.834Z,19.10
2023-05-19T16:39:26.953Z,19.10
2023-05-19T16:41:54.967Z,19.10
2023-05-19T16:44:24.452Z,19.10
2023-05-19T16:46:52.554Z,19.10
2023-05-19T16:49:20.568Z,19.20
2023-05-19T16:51:50.012Z,19.20
2023-05-19T16:54:18.227Z,19.20
2023-05-19T16:56:46.361Z,19.10
2023-05-19T16:59:14.377Z,19.10
2023-05-19T17:01:42.447Z,19.10
2023-05-19T17:04:10.750Z,19.00
2023-05-19T17:06:38.789Z,19.00
2023-05-19T17:09:31.950Z,19.00
2023-05-19T17:11:59.978Z,18.90
2023-05-19T17:14:28.042Z,18.90
2023-05-19T17:16:56.368Z,18.90
2023-05-19T17:19:24.572Z,18.70
2023-05-19T17:21:52.596Z,18.70
2023-05-19T17:24:21.998Z,18.60
2023-05-19T17:26:50.039Z,18.60
2023-05-19T17:29:18.073Z,18.60
2023-05-19T17:31:46.365Z,18.60
2023-05-19T17:34:14.416Z,18.60
2023-05-19T17:36:42.446Z,18.60
2023-05-19T17:39:10.621Z,18.50
2023-05-19T17:41:40.071Z,18.50
2023-05-19T17:44:08.162Z,18.50
2023-05-19T17:46:38.772Z,18.50
2023-05-19T17:49:07.289Z,18.50
2023-05-19T17:51:35.884Z,18.50
2023-05-19T17:54:04.686Z,18.40
2023-05-19T17:56:34.937Z,18.40
2023-05-19T17:59:04.780Z,18.40
2023-05-19T18:01:33.529Z,18.30
2023-05-19T18:04:02.380Z,18.30
2023-05-19T18:06:31.368Z,18.20
2023-05-19T18:09:01.688Z,18.20
2023-05-19T18:11:30.108Z,18.20
2023-05-19T18:14:00.715Z,18.10
2023-05-19T18:16:30.452Z,18.10
2023-05-19T18:18:58.707Z,18.00
2023-05-19T18:21:26.938Z,17.90
2023-05-19T18:23:54.972Z,17.90
2023-05-19T18:26:23.131Z,17.80
2023-05-19T18:28:51.111Z,17.80
2023-05-19T18:31:19.858Z,17.80
2023-05-19T18:33:49.713Z,17.80
2023-05-19T18:36:17.785Z,17.70
2023-05-19T18:38:47.295Z,17.70
2023-05-19T18:41:15.539Z,17.60
2023-05-19T18:43:43.541Z,17.50
2023-05-19T18:46:13.241Z,17.50
2023-05-19T18:48:41.672Z,17.40
2023-05-19T18:51:11.156Z,17.30
2023-05-19T18:53:39.181Z,17.20
2023-05-19T18:56:08.309Z,17.30
2023-05-19T18:58:36.698Z,17.20
2023-05-19T19:01:05.087Z,17.20
2023-05-19T19:03:33.226Z,17.20
2023-05-19T19:06:01.778Z,17.00
2023-05-19T19:08:31.199Z,16.90
2023-05-19T19:11:01.113Z,16.90
2023-05-19T19:13:29.297Z,16.80
2023-05-19T19:15:57.422Z,16.70
2023-05-19T19:18:26.540Z,16.70
2023-05-19T19:20:54.868Z,16.60
2023-05-19T19:23:22.927Z,16.50
2023-05-19T19:25:52.410Z,16.50
2023-05-19T19:28:20.682Z,16.40
2023-05-19T19:30:48.998Z,16.30
2023-05-19T19:33:19.568Z,16.20
2023-05-19T19:35:47.922Z,16.10
2023-05-19T19:38:15.994Z,16.00
2023-05-19T19:40:44.060Z,15.90
2023-05-19T19:43:15.035Z,15.90
2023-05-19T19:45:43.283Z,15.80
2023-05-19T19:48:11.876Z,15.70
2023-05-19T19:50:40.055Z,15.70
2023-05-19T19:53:08.817Z,15.60
2023-05-19T19:55:36.842Z,15.60
2023-05-19T19:58:04.845Z,15.50
2023-05-19T20:00:34.553Z,15.40
2023-05-19T20:03:05.480Z,15.40
2023-05-19T20:05:33.859Z,15.40
2023-05-19T20:08:01.891Z,15.40
2023-05-19T20:10:30.030Z,15.40
2023-05-19T20:12:58.819Z,15.30
2023-05-19T20:15:26.962Z,15.30
2023-05-19T20:17:56.541Z,15.30
2023-05-19T20:20:24.640Z,15.20
2023-05-19T20:22:52.754Z,15.20
2023-05-19T20:25:20.834Z,15.10
2023-05-19T20:27:50.247Z,15.00
2023-05-19T20:30:18.362Z,15.00
2023-05-19T20:32:46.948Z,15.00
2023-05-19T20:35:17.012Z,14.90
2023-05-19T20:37:45.073Z,14.90
2023-05-19T20:40:13.644Z,14.90
2023-05-19T20:42:41.738Z,14.90
2023-05-19T20:45:10.170Z,14.80
2023-05-19T20:47:38.292Z,14.90
2023-05-19T20:50:07.283Z,14.90
2023-05-19T20:52:36.772Z,14.90
2023-05-19T20:55:05.371Z,14.80
2023-05-19T20:57:33.548Z,14.90
2023-05-19T21:00:01.611Z,14.80
2023-05-19T21:02:29.693Z,14.90
2023-05-19T21:04:57.841Z,14.90
2023-05-19T21:07:26.227Z,14.90
2023-05-19T21:09:56.579Z,14.90
2023-05-19T21:12:25.233Z,14.90
2023-05-19T21:14:53.353Z,15.00
2023-05-19T21:17:26.203Z,15.00
2023-05-19T21:19:57.960Z,15.00
2023-05-19T21:22:26.610Z,15.00
2023-05-19T21:24:56.236Z,15.00
2023-05-19T21:27:24.538Z,15.00
2023-05-19T21:29:53.830Z,15.00
2023-05-19T21:32:22.360Z,15.10
2023-05-19T21:34:50.625Z,15.00
2023-05-19T21:37:19.640Z,15.10
2023-05-19T21:39:48.660Z,15.00
2023-05-19T21:42:18.072Z,15.00
2023-05-19T21:44:46.418Z,15.00
2023-05-19T21:47:14.448Z,15.00
2023-05-19T21:49:42.465Z,15.00
2023-05-19T21:52:10.886Z,15.00
2023-05-19T21:54:38.937Z,15.00
2023-05-19T21:57:07.158Z,15.10
2023-05-19T21:59:36.724Z,15.00
2023-05-19T22:02:04.899Z,15.00
2023-05-19T22:04:33.467Z,14.90
2023-05-19T22:07:01.510Z,15.00
2023-05-19T22:09:29.622Z,15.00
2023-05-19T22:11:57.752Z,14.90
2023-05-19T22:14:26.175Z,14.90
2023-05-19T22:16:56.242Z,14.90
2023-05-19T22:19:24.287Z,14.90
2023-05-19T22:22:01.994Z,14.80
2023-05-19T22:24:34.102Z,14.80
2023-05-19T22:27:02.105Z,14.80
2023-05-19T22:29:30.165Z,14.70
2023-05-19T22:31:59.538Z,14.70
2023-05-19T22:34:27.539Z,14.70
2023-05-19T22:36:55.570Z,14.60
2023-05-19T22:39:23.579Z,14.50
2023-05-19T22:41:51.679Z,14.50
2023-05-19T22:44:19.721Z,14.40
2023-05-19T22:46:47.781Z,14.40
2023-05-19T22:49:17.161Z,14.30
2023-05-19T22:51:45.217Z,14.30
2023-05-19T22:54:13.439Z,14.30
2023-05-19T22:56:44.236Z,14.20
2023-05-19T22:59:13.319Z,14.20
2023-05-19T23:01:41.566Z,14.20
2023-05-19T23:04:11.373Z,14.10
2023-05-19T23:06:40.806Z,14.10
2023-05-19T23:09:08.863Z,14.00
2023-05-19T23:11:36.929Z,14.00
2023-05-19T23:14:04.954Z,14.00
2023-05-19T23:16:33.015Z,13.90
2023-05-19T23:19:01.207Z,13.90
2023-05-19T23:21:31.231Z,13.90
2023-05-19T23:24:00.597Z,13.80
2023-05-19T23:26:28.609Z,13.80
2023-05-19T23:28:56.622Z,13.70
2023-05-19T23:31:26.530Z,13.60
2023-05-19T23:33:55.116Z,13.60
2023-05-19T23:36:23.441Z,13.60
2023-05-19T23:38:51.472Z,13.50
2023-05-19T23:41:21.024Z,13.50
2023-05-19T23:43:49.114Z,13.40
2023-05-19T23:46:17.325Z,13.40
2023-05-19T23:48:45.510Z,13.40
2023-05-19T23:51:13.626Z,13.30
2023-05-19T23:53:41.653Z,13.30
2023-05-19T23:56:09.771Z,13.30
2023-05-19T23:58:39.176Z,13.30
